Terminal Aerodrome Forecast
Issued by NWS Cleveland, OH

Home | Current Version | Previous Version | Text Only | Print | Product List | Glossary Off
Versions: 1 2 3 4 5 6 7 8 9 10 11 12 13 14 15 16

000
FTUS41 KCLE 251138
TAFMFD
TAF
KMFD 251138Z 2512/2612 23006KT P6SM SCT050 BKN100
     FM251400 25012G20KT P6SM BKN025
      TEMPO 2518/2522 26015G25KT 6SM -SHRASN BKN020
     FM260500 27010G18KT P6SM BKN025=

USA.gov is the U.S. government's official web portal to all federal, state and local government web resources and services.